Time;durP1;ratioP1;P1;durP2;ratioP2;P2;SDS_P1;SDS_P2;PMS_P1;PMS_P2;Temp;Humidity;BMP_temperature;BMP_pressure;BME280_temperature;BME280_humidity;BME280_pressure;Samples;Min_cycle;Max_cycle;Signal;HPM_P1;HPM_P2
2022/11/07 15:10:30;;;;;;;2.10;1.30;;;;;;;14.16;90.63;98118.03;5113049;27;20558;-76
2022/11/07 15:12:59;;;;;;;1.63;0.80;;;;;;;14.23;91.97;98129.91;5114777;28;20214;-77
2022/11/07 15:15:28;;;;;;;1.67;1.00;;;;;;;14.20;90.74;98122.19;5114597;28;20225;-78
2022/11/07 15:17:57;;;;;;;3.00;1.30;;;;;;;14.19;88.64;98099.22;5114483;28;20238;-78
2022/11/07 15:20:33;;;;;;;1.47;1.00;;;;;;;14.23;88.47;98100.66;5114539;28;20252;-78
2022/11/07 15:23:01;;;;;;;4.50;1.17;;;;;;;14.18;87.50;98097.50;5114499;28;20263;-77
2022/11/07 15:25:34;;;;;;;1.10;0.53;;;;;;;14.17;87.51;98101.16;5114392;28;20497;-78
2022/11/07 15:28:18;;;;;;;2.30;0.90;;;;;;;14.14;87.15;98098.72;5114434;28;20610;-77
2022/11/07 15:30:46;;;;;;;2.40;0.80;;;;;;;14.09;87.43;98100.94;5114281;28;20219;-77
2022/11/07 15:33:15;;;;;;;1.87;0.83;;;;;;;14.03;86.74;98101.44;5114126;28;20340;-78
2022/11/07 15:35:41;;;;;;;1.75;0.98;;;;;;;13.95;87.28;98103.91;5112121;28;20497;-79
2022/11/07 15:38:16;;;;;;;1.20;1.00;;;;;;;13.91;87.33;98102.47;5114120;28;20539;-79
2022/11/07 15:40:44;;;;;;;2.60;1.10;;;;;;;13.92;87.32;98109.44;5114339;28;20256;-80
2022/11/07 15:43:11;;;;;;;1.77;1.03;;;;;;;13.89;87.36;98099.94;5114015;28;20218;-76
2022/11/07 15:45:38;;;;;;;2.10;1.07;;;;;;;13.90;87.21;98106.09;5124496;28;20257;-67
2022/11/07 15:48:06;;;;;;;1.00;0.80;;;;;;;13.87;87.93;98111.66;5127442;28;20324;-71
2022/11/07 15:50:35;;;;;;;1.50;0.90;;;;;;;13.84;88.14;98118.09;5126306;28;20203;-70
2022/11/07 15:53:02;;;;;;;3.57;0.90;;;;;;;13.79;88.63;98130.03;5130384;28;20219;-77
2022/11/07 15:55:28;;;;;;;1.80;0.80;;;;;;;13.77;89.09;98126.66;5133754;28;20435;-78
2022/11/07 15:57:56;;;;;;;1.10;1.00;;;;;;;13.76;89.57;98130.31;5134282;28;20221;-78
2022/11/07 16:00:25;;;;;;;2.47;1.10;;;;;;;13.70;89.22;98125.50;5132003;28;20216;-78
2022/11/07 16:02:53;;;;;;;2.50;1.10;;;;;;;13.72;89.34;98123.53;5130082;28;20221;-77
2022/11/07 16:05:19;;;;;;;2.03;1.03;;;;;;;13.67;89.87;98131.03;5133453;27;20215;-78
2022/11/07 16:07:47;;;;;;;2.40;0.90;;;;;;;13.60;89.94;98124.53;5134377;28;20218;-78
2022/11/07 16:10:20;;;;;;;2.30;1.13;;;;;;;13.52;89.80;98121.69;5123026;28;20241;-77
2022/11/07 16:12:47;;;;;;;2.97;1.17;;;;;;;13.35;89.93;98114.22;5114642;28;20292;-79
2022/11/07 16:15:17;;;;;;;1.70;1.07;;;;;;;13.33;90.84;98126.78;5105355;28;20226;-78
2022/11/07 16:17:44;;;;;;;3.03;1.20;;;;;;;13.33;91.04;98126.78;5101766;28;20278;-78
2022/11/07 16:20:15;;;;;;;4.00;1.70;;;;;;;13.24;91.94;98132.81;5114592;28;20250;-77
2022/11/07 16:22:42;;;;;;;1.70;1.40;;;;;;;13.17;92.05;98131.63;5115580;28;20201;-79
2022/11/07 16:25:12;;;;;;;2.50;1.70;;;;;;;13.06;92.67;98135.13;5119999;28;20235;-78
2022/11/07 16:27:41;;;;;;;2.67;1.40;;;;;;;12.94;93.43;98140.50;5118299;28;20233;-78
2022/11/07 16:30:16;;;;;;;2.00;1.40;;;;;;;12.84;93.84;98148.34;5115890;28;20421;-79
2022/11/07 16:32:43;;;;;;;1.63;1.17;;;;;;;12.77;94.02;98141.00;5115684;28;20217;-77
2022/11/07 16:35:10;;;;;;;2.20;1.40;;;;;;;12.65;94.65;98152.56;5107568;28;20274;-79
2022/11/07 16:37:37;;;;;;;2.30;1.67;;;;;;;12.55;95.07;98148.91;5101126;28;20260;-78
2022/11/07 16:40:07;;;;;;;5.13;1.90;;;;;;;12.43;95.39;98156.00;5100087;28;20237;-76
2022/11/07 16:42:34;;;;;;;3.13;1.87;;;;;;;12.36;96.17;98160.06;5099165;28;20229;-77
2022/11/07 16:45:01;;;;;;;3.10;2.13;;;;;;;12.31;96.80;98171.97;5114938;28;20217;-77
2022/11/07 16:47:32;;;;;;;3.10;1.70;;;;;;;12.21;97.82;98176.28;5114606;28;20216;-77
2022/11/07 16:49:58;;;;;;;2.87;1.70;;;;;;;12.18;97.98;98181.81;5116770;28;20211;-77
2022/11/07 16:52:27;;;;;;;2.80;1.73;;;;;;;12.17;98.60;98180.97;5113574;28;20216;-76
2022/11/07 16:54:53;;;;;;;3.23;1.47;;;;;;;12.15;99.22;98184.69;5106971;28;20230;-77
2022/11/07 16:57:20;;;;;;;3.70;1.60;;;;;;;12.16;98.92;98178.44;5105874;28;20542;-80
2022/11/07 16:59:49;;;;;;;2.87;1.40;;;;;;;12.15;99.14;98180.25;5112928;28;20235;-77
2022/11/07 17:02:17;;;;;;;2.73;1.77;;;;;;;12.11;99.53;98180.59;5113934;28;20608;-78
2022/11/07 17:04:46;;;;;;;4.43;2.40;;;;;;;12.04;99.45;98184.66;5117230;28;20228;-80
2022/11/07 17:07:14;;;;;;;5.33;3.20;;;;;;;11.97;100.00;98184.25;5114443;28;20215;-79
2022/11/07 17:09:41;;;;;;;3.87;2.40;;;;;;;11.89;100.00;98184.00;5115682;28;20238;-80
2022/11/07 17:12:12;;;;;;;3.80;2.23;;;;;;;11.79;100.00;98190.06;5114990;28;20251;-79
2022/11/07 17:14:38;;;;;;;3.13;1.93;;;;;;;11.59;100.00;98188.00;5115958;28;20261;-77
2022/11/07 17:17:06;;;;;;;2.60;1.60;;;;;;;11.57;100.00;98189.91;5112660;28;20219;-78
2022/11/07 17:19:33;;;;;;;3.83;1.93;;;;;;;11.50;100.00;98184.19;5109941;28;20266;-78
2022/11/07 17:22:02;;;;;;;2.73;1.50;;;;;;;11.53;100.00;98183.13;5113553;28;20245;-79
2022/11/07 17:24:29;;;;;;;3.67;1.77;;;;;;;11.48;100.00;98185.25;5114787;28;20206;-78
2022/11/07 17:26:56;;;;;;;2.30;2.00;;;;;;;11.43;100.00;98190.06;5110325;28;20210;-79
2022/11/07 17:29:23;;;;;;;3.80;1.93;;;;;;;11.34;100.00;98185.41;5101403;28;20237;-78
2022/11/07 17:31:49;;;;;;;4.73;2.93;;;;;;;11.27;100.00;98192.09;5097870;28;20226;-77
2022/11/07 17:34:16;;;;;;;5.53;3.20;;;;;;;11.16;100.00;98197.28;5098478;28;20216;-78
2022/11/07 17:36:46;;;;;;;5.63;2.90;;;;;;;11.08;100.00;98203.09;5098500;28;20255;-77
2022/11/07 17:39:16;;;;;;;5.53;2.50;;;;;;;10.98;100.00;98212.66;5098388;28;20245;-77
2022/11/07 17:41:44;;;;;;;3.73;2.30;;;;;;;10.94;100.00;98210.34;5098322;28;20255;-77
2022/11/07 17:44:11;;;;;;;5.73;2.60;;;;;;;10.88;100.00;98210.75;5098412;28;20222;-77
2022/11/07 17:46:42;;;;;;;4.13;2.50;;;;;;;10.82;100.00;98216.47;5096797;28;20259;-78
2022/11/07 17:49:13;;;;;;;3.10;2.03;;;;;;;10.80;100.00;98218.34;5098244;28;20214;-77
2022/11/07 17:51:40;;;;;;;2.97;2.20;;;;;;;10.77;100.00;98210.66;5098132;28;20221;-79
2022/11/07 17:54:07;;;;;;;3.57;1.90;;;;;;;10.75;100.00;98213.38;5098016;28;20298;-79
2022/11/07 17:56:39;;;;;;;4.93;2.53;;;;;;;10.77;100.00;98213.28;5098160;28;20295;-78
2022/11/07 17:59:08;;;;;;;5.27;2.90;;;;;;;10.82;100.00;98213.81;5099743;28;20599;-77
2022/11/07 18:01:37;;;;;;;3.27;2.93;;;;;;;10.86;100.00;98212.66;5100276;28;20218;-77
2022/11/07 18:04:05;;;;;;;4.23;3.03;;;;;;;10.86;100.00;98213.50;5100720;28;20268;-77
2022/11/07 18:06:34;;;;;;;3.70;2.60;;;;;;;10.89;100.00;98212.44;5100872;28;20221;-79
2022/11/07 18:09:01;;;;;;;4.53;2.30;;;;;;;10.95;100.00;98207.56;5101200;28;20314;-78
2022/11/07 18:11:29;;;;;;;3.93;2.43;;;;;;;11.06;100.00;98198.91;5099460;28;20222;-78
2022/11/07 18:13:59;;;;;;;5.13;2.80;;;;;;;11.19;100.00;98199.72;5097951;28;20228;-78
2022/11/07 18:16:28;;;;;;;3.20;2.40;;;;;;;11.31;100.00;98188.28;5097850;28;20275;-77
2022/11/07 18:18:55;;;;;;;4.67;2.20;;;;;;;11.42;100.00;98177.75;5097455;28;20271;-80
2022/11/07 18:21:21;;;;;;;3.50;2.40;;;;;;;11.51;100.00;98177.97;5097628;28;20215;-77
2022/11/07 18:23:48;;;;;;;3.57;2.20;;;;;;;11.57;100.00;98174.00;5097418;28;20219;-77
2022/11/07 18:26:19;;;;;;;3.83;2.00;;;;;;;11.58;100.00;98183.66;5097363;28;20252;-77
2022/11/07 18:28:46;;;;;;;3.47;2.30;;;;;;;11.50;100.00;98173.59;5097531;28;20290;-77
2022/11/07 18:31:17;;;;;;;6.57;2.53;;;;;;;11.42;100.00;98175.97;5097423;28;20269;-77
2022/11/07 18:33:45;;;;;;;5.03;2.60;;;;;;;11.29;100.00;98182.22;5096980;28;20322;-78
2022/11/07 18:36:14;;;;;;;3.80;2.20;;;;;;;11.18;100.00;98183.00;5095614;28;20294;-78
2022/11/07 18:38:40;;;;;;;5.03;2.60;;;;;;;11.10;100.00;98195.94;5097233;28;20215;-78
2022/11/07 18:41:10;;;;;;;4.23;2.37;;;;;;;11.08;100.00;98191.69;5097149;28;20218;-78
2022/11/07 18:43:37;;;;;;;3.00;1.90;;;;;;;11.04;100.00;98185.78;5097192;28;20223;-78
2022/11/07 18:46:06;;;;;;;3.07;2.17;;;;;;;11.02;100.00;98187.66;5097140;28;20269;-79
2022/11/07 18:48:36;;;;;;;3.60;2.17;;;;;;;10.99;100.00;98194.97;5097197;28;20220;-79
2022/11/07 18:51:03;;;;;;;5.53;2.67;;;;;;;10.91;100.00;98194.66;5097118;28;20641;-79
2022/11/07 18:53:30;;;;;;;7.20;4.87;;;;;;;10.77;100.00;98198.25;5097092;28;20534;-79
2022/11/07 18:55:57;;;;;;;6.43;5.33;;;;;;;10.72;100.00;98199.53;5097066;28;20242;-78
2022/11/07 18:58:24;;;;;;;8.60;5.50;;;;;;;10.71;100.00;98196.03;5097227;28;20299;-78
2022/11/07 19:00:51;;;;;;;5.57;3.87;;;;;;;10.71;100.00;98197.84;5096919;28;20237;-77
2022/11/07 19:03:17;;;;;;;4.90;3.40;;;;;;;10.80;100.00;98197.19;5095191;28;20210;-77
2022/11/07 19:05:46;;;;;;;5.40;3.07;;;;;;;10.86;100.00;98189.72;5096984;28;20617;-77
2022/11/07 19:08:14;;;;;;;6.60;3.27;;;;;;;10.85;100.00;98187.16;5096867;28;20242;-77
2022/11/07 19:10:41;;;;;;;3.77;2.83;;;;;;;10.76;100.00;98187.81;5097053;28;20264;-78
2022/11/07 19:13:08;;;;;;;4.80;2.70;;;;;;;10.71;100.00;98187.28;5096870;28;20494;-79
2022/11/07 19:15:38;;;;;;;5.13;2.90;;;;;;;10.70;100.00;98191.69;5096820;28;20224;-79
2022/11/07 19:18:05;;;;;;;5.70;3.40;;;;;;;10.75;100.00;98194.03;5096857;28;20214;-78
2022/11/07 19:20:32;;;;;;;5.07;3.60;;;;;;;10.79;100.00;98187.59;5096801;28;20535;-79
2022/11/07 19:23:01;;;;;;;5.83;3.37;;;;;;;10.85;100.00;98195.09;5096807;28;20224;-77
2022/11/07 19:25:29;;;;;;;5.00;3.50;;;;;;;10.89;100.00;98197.41;5096719;28;20249;-78
2022/11/07 19:27:56;;;;;;;7.57;3.90;;;;;;;10.95;100.00;98201.44;5095024;28;20216;-80
2022/11/07 19:30:24;;;;;;;4.63;3.47;;;;;;;10.99;100.00;98202.91;5096692;28;20219;-79
2022/11/07 19:32:53;;;;;;;5.13;4.00;;;;;;;11.00;100.00;98194.03;5096651;28;20218;-79
2022/11/07 19:35:20;;;;;;;5.53;3.70;;;;;;;11.03;100.00;98189.38;5096576;28;20219;-79
2022/11/07 19:37:48;;;;;;;7.33;3.70;;;;;;;11.09;100.00;98204.81;5096620;28;20221;-77
2022/11/07 19:40:17;;;;;;;9.23;4.37;;;;;;;11.16;100.00;98192.00;5096424;28;20557;-77
2022/11/07 19:42:45;;;;;;;6.30;4.83;;;;;;;11.20;100.00;98185.53;5096589;28;20218;-77
2022/11/07 19:45:13;;;;;;;4.70;4.17;;;;;;;11.25;100.00;98188.72;5097988;28;20519;-78
2022/11/07 19:47:41;;;;;;;6.63;4.23;;;;;;;11.24;100.00;98182.56;5100696;28;20337;-79
2022/11/07 19:50:09;;;;;;;7.87;6.13;;;;;;;11.23;100.00;98169.44;5100291;28;20228;-79
2022/11/07 19:52:37;;;;;;;9.90;7.10;;;;;;;11.18;100.00;98182.16;5100403;28;20217;-79
2022/11/07 19:55:06;;;;;;;19.40;12.57;;;;;;;11.12;100.00;98182.59;5098794;28;20222;-78
2022/11/07 19:57:35;;;;;;;19.43;12.80;;;;;;;11.04;100.00;98184.91;5100280;28;20223;-78
2022/11/07 20:00:04;;;;;;;14.23;9.87;;;;;;;10.89;100.00;98193.94;5100009;28;20237;-78
2022/11/07 20:02:32;;;;;;;10.23;7.60;;;;;;;10.74;100.00;98192.34;5100026;28;20223;-79
2022/11/07 20:05:00;;;;;;;8.27;5.17;;;;;;;10.59;100.00;98198.69;5099970;28;20222;-79
2022/11/07 20:07:28;;;;;;;6.90;4.40;;;;;;;10.39;100.00;98207.94;5099902;28;20253;-79
2022/11/07 20:09:57;;;;;;;7.30;4.90;;;;;;;10.26;100.00;98211.50;5099926;28;20242;-79
2022/11/07 20:12:25;;;;;;;5.90;4.67;;;;;;;10.13;100.00;98210.63;5099904;28;20218;-79
2022/11/07 20:14:54;;;;;;;11.27;7.00;;;;;;;10.04;100.00;98216.53;5099926;28;20215;-79
2022/11/07 20:17:22;;;;;;;10.87;6.03;;;;;;;9.98;100.00;98217.72;5099698;28;20211;-79
2022/11/07 20:19:50;;;;;;;12.47;6.87;;;;;;;9.90;100.00;98229.78;5097829;28;20235;-79
2022/11/07 20:22:18;;;;;;;9.63;5.57;;;;;;;9.85;100.00;98231.84;5099553;28;20222;-78
2022/11/07 20:24:46;;;;;;;7.77;5.60;;;;;;;9.73;100.00;98230.00;5099549;28;20522;-78
2022/11/07 20:27:24;;;;;;;9.77;5.80;;;;;;;9.70;100.00;98238.09;5098297;28;20864;-77
2022/11/07 20:29:58;;;;;;;7.53;5.50;;;;;;;9.67;100.00;98244.41;5094873;28;20289;-79
2022/11/07 20:32:43;;;;;;;9.17;5.70;;;;;;;9.61;100.00;98225.50;5096343;28;20253;-81
2022/11/07 20:35:20;;;;;;;7.70;5.10;;;;;;;9.60;100.00;98231.72;5098171;28;20226;-79
2022/11/07 20:38:01;;;;;;;7.33;5.37;;;;;;;9.55;100.00;98233.81;5086180;28;20305;-77
2022/11/07 20:40:30;;;;;;;10.73;6.20;;;;;;;9.46;100.00;98229.97;5093568;28;20288;-79
2022/11/07 20:43:00;;;;;;;7.60;5.27;;;;;;;9.38;100.00;98232.25;5079547;28;20330;-79
2022/11/07 20:45:38;;;;;;;8.77;5.30;;;;;;;9.35;100.00;98237.69;5075961;28;20226;-79
2022/11/07 20:48:16;;;;;;;6.30;4.73;;;;;;;9.42;100.00;98230.25;5078377;28;20219;-78
2022/11/07 20:50:45;;;;;;;7.03;4.80;;;;;;;9.46;100.00;98231.75;5078047;28;20219;-78
2022/11/07 20:53:26;;;;;;;8.57;5.00;;;;;;;9.41;100.00;98231.19;5078267;28;20220;-83
2022/11/07 20:55:56;;;;;;;9.50;5.10;;;;;;;9.33;100.00;98231.69;5078747;28;20269;-82
2022/11/07 20:58:23;;;;;;;7.53;4.93;;;;;;;9.27;100.00;98237.34;5078831;28;20283;-82
2022/11/07 21:00:57;;;;;;;8.70;4.70;;;;;;;9.22;100.00;98234.13;5096541;28;20244;-82
2022/11/07 21:03:33;;;;;;;9.00;5.20;;;;;;;9.18;100.00;98239.69;5097988;28;20218;-82
2022/11/07 21:06:12;;;;;;;6.60;4.37;;;;;;;9.11;100.00;98235.75;5098738;28;20628;-82
2022/11/07 21:11:29;;;;;;;7.13;4.50;;;;;;;8.91;100.00;98241.38;5097071;28;20522;-82
2022/11/07 21:14:06;;;;;;;6.57;4.80;;;;;;;8.86;100.00;98256.59;5098798;28;20270;-81
2022/11/07 21:16:44;;;;;;;7.67;5.27;;;;;;;8.81;100.00;98240.25;5098686;28;20252;-82
2022/11/07 21:19:16;;;;;;;9.23;5.03;;;;;;;8.79;100.00;98242.13;5098693;28;20224;-82
2022/11/07 21:21:51;;;;;;;7.77;5.13;;;;;;;8.77;100.00;98244.88;5098831;28;20222;-82
2022/11/07 21:24:22;;;;;;;7.43;4.93;;;;;;;8.75;100.00;98240.63;5098675;28;20215;-81
2022/11/07 21:27:05;;;;;;;7.17;4.97;;;;;;;8.71;100.00;98239.09;5098481;28;20216;-81
2022/11/07 21:29:42;;;;;;;6.47;4.50;;;;;;;8.73;100.00;98242.47;5098575;28;20561;-81
2022/11/07 21:32:17;;;;;;;7.87;5.07;;;;;;;8.74;100.00;98241.53;5098448;28;20237;-81
2022/11/07 21:35:12;;;;;;;7.80;4.40;;;;;;;8.70;100.00;98237.41;5098403;28;20572;-81
2022/11/07 21:37:50;;;;;;;5.97;4.27;;;;;;;8.72;100.00;98232.88;5096622;28;20246;-81
2022/11/07 21:40:24;;;;;;;7.20;5.10;;;;;;;8.68;100.00;98231.38;5098212;28;20237;-83
2022/11/07 21:42:58;;;;;;;5.63;4.73;;;;;;;8.66;100.00;98241.16;5098147;28;20270;-81
2022/11/07 21:45:44;;;;;;;5.87;4.33;;;;;;;8.67;100.00;98233.16;5098176;28;20246;-81
2022/11/07 21:48:15;;;;;;;9.27;5.43;;;;;;;8.69;100.00;98219.91;5097604;28;20290;-81
2022/11/07 21:50:59;;;;;;;6.13;4.50;;;;;;;8.67;100.00;98224.41;5098103;28;20216;-81
2022/11/07 21:53:27;;;;;;;8.30;4.97;;;;;;;8.64;100.00;98225.44;5096678;28;20568;-81
2022/11/07 21:55:58;;;;;;;8.93;5.03;;;;;;;8.61;100.00;98227.41;5098129;28;20574;-82
2022/11/07 21:58:45;;;;;;;8.13;5.40;;;;;;;8.54;100.00;98221.69;5096370;28;20297;-82
2022/11/07 22:01:17;;;;;;;8.50;5.10;;;;;;;8.47;100.00;98216.84;5077504;28;20323;-79
2022/11/07 22:04:04;;;;;;;9.40;5.17;;;;;;;8.40;100.00;98215.53;5075804;28;20329;-81
2022/11/07 22:06:46;;;;;;;7.40;5.17;;;;;;;8.34;100.00;98215.88;5077617;28;20223;-81
2022/11/07 22:09:15;;;;;;;10.47;6.20;;;;;;;8.30;100.00;98211.72;5076871;28;20735;-82
2022/11/07 22:11:46;;;;;;;7.53;5.20;;;;;;;8.25;100.00;98213.78;5077666;28;20630;-82
2022/11/07 22:14:18;;;;;;;10.83;6.50;;;;;;;8.19;100.00;98214.09;5077459;28;20611;-82
2022/11/07 22:16:51;;;;;;;8.37;6.10;;;;;;;8.14;100.00;98203.84;5077371;28;20223;-83
2022/11/07 22:19:26;;;;;;;8.60;6.00;;;;;;;8.13;100.00;98203.94;5077246;28;20218;-81
2022/11/07 22:21:59;;;;;;;11.63;6.93;;;;;;;8.07;100.00;98204.28;5077430;28;20269;-81
2022/11/07 22:24:36;;;;;;;7.73;5.97;;;;;;;7.96;100.00;98190.94;5077326;28;20232;-83
2022/11/07 22:27:05;;;;;;;8.63;5.70;;;;;;;7.99;100.00;98190.72;5076450;28;20219;-83
2022/11/07 22:29:46;;;;;;;9.57;6.47;;;;;;;7.95;100.00;98183.97;5075719;28;20251;-81
2022/11/07 22:32:21;;;;;;;8.97;5.47;;;;;;;7.95;100.00;98181.34;5077195;28;20220;-82
2022/11/07 22:35:03;;;;;;;8.37;6.03;;;;;;;7.93;100.00;98175.28;5075669;28;20215;-82
2022/11/07 22:37:38;;;;;;;7.33;5.87;;;;;;;7.94;100.00;98177.84;5077138;28;20214;-83
2022/11/07 22:40:06;;;;;;;6.90;5.53;;;;;;;7.98;100.00;98179.38;5076973;28;20240;-82
2022/11/07 22:42:44;;;;;;;9.17;5.27;;;;;;;7.97;100.00;98177.66;5076698;28;20216;-82
2022/11/07 22:45:25;;;;;;;7.80;5.43;;;;;;;7.99;100.00;98181.06;5077143;28;20299;-82
2022/11/07 22:48:06;;;;;;;7.23;5.40;;;;;;;7.93;100.00;98172.66;5076560;28;20225;-82
2022/11/07 22:50:36;;;;;;;10.37;5.40;;;;;;;7.89;100.00;98172.00;5077031;28;20225;-82
2022/11/07 22:53:05;;;;;;;8.87;5.03;;;;;;;7.89;100.00;98171.16;5076830;28;20258;-83
2022/11/07 22:55:46;;;;;;;8.10;5.37;;;;;;;7.92;100.00;98168.34;5075386;28;20309;-83
2022/11/07 22:58:22;;;;;;;9.10;5.93;;;;;;;7.86;100.00;98168.69;5076893;28;20220;-81
2022/11/07 23:01:02;;;;;;;6.60;5.57;;;;;;;7.85;100.00;98173.09;5094508;28;20239;-83
2022/11/07 23:03:36;;;;;;;9.30;5.57;;;;;;;7.78;100.00;98163.88;5096958;28;20240;-83
2022/11/07 23:06:25;;;;;;;7.30;5.83;;;;;;;7.81;100.00;98168.09;5096896;28;20222;-84
2022/11/07 23:11:59;;;;;;;8.07;6.10;;;;;;;7.84;100.00;98170.59;5096871;28;20313;-81
2022/11/07 23:14:35;;;;;;;8.37;5.80;;;;;;;7.86;100.00;98168.69;5096982;28;20219;-83
2022/11/07 23:17:30;;;;;;;8.77;6.33;;;;;;;7.83;100.00;98168.91;5096583;28;20219;-82
2022/11/07 23:20:08;;;;;;;8.33;6.10;;;;;;;7.81;100.00;98161.06;5095732;28;20214;-82
2022/11/07 23:23:00;;;;;;;9.97;6.73;;;;;;;7.81;100.00;98154.97;5099008;28;20272;-82
2022/11/07 23:25:41;;;;;;;9.80;6.37;;;;;;;7.79;100.00;98157.66;5100771;28;20223;-81
2022/11/07 23:28:15;;;;;;;9.00;6.30;;;;;;;7.74;100.00;98148.34;5100381;28;20281;-82
2022/11/07 23:30:45;;;;;;;9.40;6.07;;;;;;;7.78;100.00;98149.88;5100884;28;20253;-81
2022/11/07 23:33:22;;;;;;;9.20;6.30;;;;;;;7.78;100.00;98149.88;5100797;28;20272;-82
2022/11/07 23:35:51;;;;;;;8.40;6.43;;;;;;;7.80;100.00;98153.25;5100823;28;20355;-81
2022/11/07 23:38:29;;;;;;;9.13;5.83;;;;;;;7.76;100.00;98154.38;5100430;28;20225;-82
2022/11/07 23:41:04;;;;;;;8.53;6.30;;;;;;;7.73;100.00;98151.94;5100688;28;20235;-82
2022/11/07 23:43:44;;;;;;;9.33;6.50;;;;;;;7.68;100.00;98153.97;5100584;28;20215;-82
2022/11/07 23:51:58;;;;;;;8.23;6.13;;;;;;;7.67;100.00;98160.16;5100585;28;20700;-82
2022/11/07 23:57:13;;;;;;;8.67;6.60;;;;;;;7.67;100.00;98157.53;5100465;28;20209;-81
